Latest Weather Observations for Coondewanna

IDW60801

Issued at 6:43 pm WST Monday 17 December 2018 (issued every 10 minutes, with the page automatically refreshed every 10 minutes)

About weather observations | Map of weather stations | Latest weather observations for WA | Other Formats
Station Details ID: 505051 Name: COONDEWANNA Lat: -22.96 Lon: 118.81 Height: 697.63 m
Data from the previous 72 hours. | See also: Recent months for locations in Western Australia
Date/Time
WST
Temp
°C
App
Temp
°C
Dew
Point
°C
Rel
Hum
%
Delta-T
°C
Wind Press
QNH
hPa
Press
MSL
hPa
Rain since
9am
mm
Dir  Spd
km/h
Gust
km/h
Spd
kts
Gust
kts
17/06:30pm 27.7 22.7 4.7 23 12.2 SSW 20 28 11 15 1010.0 1003.8 0.0
17/06:00pm 28.4 22.5 4.0 21 12.8 SW 24 35 13 19 1009.4 1003.1 0.0
17/05:30pm 29.5 22.4 3.5 19 13.6 WSW 30 37 16 20 1009.1 1002.8 0.0
17/05:00pm 29.6 23.0 4.3 20 13.4 SW 28 43 15 23 1008.9 1002.7 0.0
17/04:30pm 29.4 22.8 4.1 20 13.3 SSW 28 37 15 20 1008.8 1002.6 0.0
17/04:00pm 30.0 23.9 4.6 20 13.6 SSW 26 41 14 22 1008.7 1002.5 0.0
17/03:30pm 30.3 23.2 5.6 21 13.4 WSW 32 43 17 23 1008.9 1002.7 0.0
17/03:08pm 29.6 23.0 4.3 20 13.4 SW 28 52 15 28 1008.9 1002.7 0.0
17/03:00pm 29.5 24.4 6.2 23 12.8 SW 22 37 12 20 1009.1 1002.8 0.0
17/02:30pm 29.1 23.5 7.1 25 12.2 SW 26 44 14 24 1009.5 1003.3 0.0
17/02:00pm 28.3 21.6 5.8 24 12.2 WSW 30 50 16 27 1009.8 1003.6 0.0
17/01:35pm 28.1 22.0 6.8 26 11.7 WSW 28 46 15 25 1010.0 1003.8 0.0
17/01:30pm 28.2 21.4 6.9 26 11.7 SW 32 46 17 25 1010.0 1003.8 0.0
17/01:04pm 28.1 21.1 6.2 25 11.9 WSW 32 50 17 27 1010.1 1003.9 0.0
17/01:00pm 27.7 21.2 6.5 26 11.6 WSW 30 43 16 23 1010.0 1003.8 0.0
17/12:30pm 27.3 21.2 6.7 27 11.2 SW 28 39 15 21 1010.7 1004.4 0.0
17/12:02pm 26.1 19.3 6.7 29 10.5 WSW 32 50 17 27 1010.9 1004.7 0.0
17/12:00pm 25.8 18.7 6.4 29 10.4 WSW 33 50 18 27 1011.0 1004.8 0.0
17/11:30am 25.8 20.0 6.4 29 10.4 SSW 26 35 14 19 1011.1 1004.9 0.0
17/11:00am 24.9 18.6 5.7 29 10.2 SW 28 37 15 20 1011.5 1005.3 0.0
17/10:30am 24.2 18.1 6.5 32 9.4 SW 28 43 15 23 1011.6 1005.4 0.0
17/10:00am 24.4 19.2 7.1 33 9.4 WSW 24 44 13 24 1011.6 1005.4 0.0
17/09:30am 22.7 17.1 7.3 37 8.3 WSW 26 39 14 21 1011.6 1005.4 0.0
17/09:00am 21.8 16.6 7.2 39 7.8 WSW 24 35 13 19 1011.7 1005.5 0.0
17/08:30am 20.4 16.0 7.4 43 6.9 WSW 20 28 11 15 1011.6 1005.4 0.0
17/08:00am 20.2 15.5 7.6 44 6.7 WSW 22 30 12 16 1011.8 1005.6 0.0
17/07:30am 19.1 13.4 6.9 45 6.4 SW 26 35 14 19 1011.7 1005.5 0.0
17/07:00am 18.2 12.3 7.3 49 5.7 SW 28 37 15 20 1011.7 1005.5 0.0
17/06:30am 17.7 12.8 6.9 49 5.6 WSW 22 32 12 17 1011.0 1004.8 0.0
17/06:00am 17.2 11.9 6.7 50 5.4 SW 24 33 13 18 1010.8 1004.6 0.0
17/05:30am 16.8 12.0 5.4 47 5.7 WSW 20 28 11 15 1010.3 1004.1 0.0
17/05:00am 17.2 11.5 4.9 44 6.1 WSW 24 32 13 17 1010.1 1003.9 0.0
17/04:30am 17.5 11.6 4.1 41 6.5 WSW 24 35 13 19 1009.7 1003.5 0.0
17/04:00am 17.9 12.0 3.8 39 6.9 WSW 24 37 13 20 1009.5 1003.3 0.0
17/03:30am 18.2 13.7 4.4 40 6.8 WSW 17 26 9 14 1009.2 1002.9 0.0
17/03:00am 18.8 13.1 4.9 40 7.0 WSW 24 33 13 18 1009.1 1002.8 0.0
17/02:30am 19.4 13.4 5.5 40 7.1 WSW 26 35 14 19 1008.7 1002.5 0.0
17/02:00am 19.9 14.7 5.5 39 7.4 WSW 22 35 12 19 1008.5 1002.3 0.0
17/01:30am 20.6 15.2 6.2 39 7.5 WSW 24 33 13 18 1008.5 1002.3 0.0
17/01:00am 21.3 15.2 6.8 39 7.7 WSW 28 39 15 21 1008.5 1002.3 0.0
17/12:30am 21.8 15.2 6.1 36 8.2 WSW 30 41 16 22 1008.5 1002.3 0.0
17/12:00am 22.6 16.8 4.6 31 9.2 WSW 24 32 13 17 1008.6 1002.4 0.0
 
Date/Time
WST
Temp
°C
App
Temp
°C
Dew
Point
°C
Rel
Hum
%
Delta-T
°C
Wind Press
QNH
hPa
Press
MSL
hPa
Rain since
9am
mm
Dir  Spd
km/h
Gust
km/h
Spd
kts
Gust
kts
16/11:30pm 22.9 18.0 5.3 32 9.1 WSW 20 26 11 14 1008.6 1002.4 0.0
16/11:00pm 23.3 18.5 5.7 32 9.2 WSW 20 24 11 13 1008.7 1002.5 0.0
16/10:30pm 24.0 18.4 5.4 30 9.7 WSW 24 32 13 17 1008.7 1002.5 0.0
16/10:00pm 24.5 18.5 5.3 29 10.1 WSW 26 35 14 19 1008.5 1002.3 0.0
16/09:30pm 24.7 19.7 4.5 27 10.4 WSW 20 28 11 15 1008.5 1002.3 0.0
16/09:00pm 25.2 19.7 3.8 25 11.0 WSW 22 30 12 16 1008.4 1002.2 0.0
16/08:30pm 25.7 20.0 3.0 23 11.5 WSW 22 32 12 17 1008.3 1002.1 0.0
16/08:00pm 26.4 19.7 1.7 20 12.3 WSW 26 33 14 18 1008.0 1001.7 0.0
16/07:30pm 27.1 21.2 -0.9 16 13.3 WSW 20 28 11 15 1007.7 1001.4 0.0
16/07:00pm 28.0 21.3 -1.0 15 13.9 WSW 24 33 13 18 1007.2 1001.0 0.0
16/06:30pm 29.2 21.6 -2.0 13 14.8 WSW 28 41 15 22 1006.8 1000.6 0.0
16/06:00pm 30.2 22.7 -1.2 13 15.3 WSW 28 37 15 20 1006.4 1000.1 0.0
16/05:30pm 31.9 24.3 -2.2 11 16.4 WSW 28 39 15 21 1006.0 999.7 0.0
16/05:00pm 32.5 25.7 -1.7 11 16.7 W 24 35 13 19 1005.8 999.6 0.0
16/04:30pm 32.9 26.4 -2.7 10 17.1 W 22 37 12 20 1005.6 999.4 0.0
16/04:00pm 32.8 25.3 -1.5 11 16.9 W 28 35 15 19 1005.5 999.3 0.0
16/03:45pm 32.7 25.6 -1.6 11 16.8 W 26 46 14 25 1005.6 999.4 0.0
16/03:30pm 33.5 26.6 -2.3 10 17.4 W 24 35 13 19 1005.7 999.5 0.0
16/03:00pm 33.2 26.1 -1.2 11 17.1 W 26 39 14 21 1006.0 999.7 0.0
16/02:30pm 33.4 27.1 1.3 13 16.5 W 24 33 13 18 1006.3 1000.0 0.0
16/02:00pm 31.9 26.1 2.1 15 15.5 W 22 37 12 20 1006.6 1000.3 0.0
16/01:30pm 32.7 27.3 2.7 15 15.8 W 20 32 11 17 1006.9 1000.7 0.0
16/01:00pm 32.1 26.5 1.3 14 15.8 WNW 20 37 11 20 1007.2 1001.0 0.0
16/12:30pm 30.9 26.0 5.3 20 13.9 W 20 35 11 19 1007.7 1001.4 0.0
16/12:00pm 30.1 24.7 4.7 20 13.6 WNW 22 35 12 19 1008.2 1002.0 0.0
16/11:30am 30.2 26.9 8.0 25 12.5 WSW 15 22 8 12 1008.3 1002.1 0.0
16/11:00am 29.1 24.4 7.7 26 12.0 WSW 22 35 12 19 1008.7 1002.5 0.0
16/10:30am 28.7 24.7 8.4 28 11.5 WSW 19 30 10 16 1008.9 1002.7 0.0
16/10:00am 28.0 23.9 8.8 30 10.9 WSW 20 35 11 19 1009.1 1002.8 0.0
16/09:35am 28.0 22.8 8.8 30 10.9 WSW 26 61 14 33 1009.4 1003.1 0.0
16/09:30am 27.6 22.4 9.0 31 10.5 SW 26 35 14 19 1009.4 1003.1 0.0
16/09:00am 26.8 22.1 9.2 33 10.0 WSW 24 33 13 18 1009.6 1003.4 0.0
16/08:30am 26.2 21.1 9.1 34 9.6 SW 26 39 14 21 1009.5 1003.3 0.0
16/08:00am 25.2 20.1 9.1 36 9.1 WSW 26 35 14 19 1009.5 1003.3 0.0
16/07:30am 24.9 20.2 9.2 37 8.8 SW 24 32 13 17 1009.5 1003.3 0.0
16/07:00am 24.1 19.3 8.9 38 8.5 WSW 24 30 13 16 1009.2 1002.9 0.0
16/06:30am 23.6 19.7 8.8 39 8.2 WSW 19 28 10 15 1008.8 1002.6 0.0
16/06:00am 22.5 19.8 9.0 42 7.5 SSW 13 17 7 9 1008.5 1002.3 0.0
16/05:30am 21.8 19.0 8.7 43 7.2 SW 13 15 7 8 1008.1 1001.9 0.0
16/05:00am 21.8 19.4 8.7 43 7.2 SW 11 15 6 8 1007.8 1001.5 0.0
16/04:30am 22.6 19.5 8.7 41 7.6 WSW 15 17 8 9 1007.3 1001.1 0.0
16/04:00am 22.0 19.6 8.5 42 7.4 WSW 11 15 6 8 1007.0 1000.8 0.0
16/03:30am 22.9 20.3 7.8 38 8.2 WSW 11 15 6 8 1006.7 1000.4 0.0
16/03:00am 23.5 20.2 8.0 37 8.5 WSW 15 17 8 9 1006.7 1000.4 0.0
16/02:30am 24.1 20.4 8.1 36 8.8 WSW 17 19 9 10 1006.5 1000.2 0.0
16/02:00am 23.4 20.8 7.9 37 8.5 W 11 13 6 7 1006.6 1000.3 0.0
16/01:30am 24.0 21.8 8.0 36 8.8 W 9 11 5 6 1006.6 1000.3 0.0
16/01:00am 25.6 22.7 8.1 33 9.7 WSW 13 19 7 10 1006.7 1000.4 0.0
16/12:30am 26.2 23.2 7.7 31 10.2 WSW 13 17 7 9 1006.7 1000.4 0.0
16/12:00am 26.9 23.2 7.9 30 10.6 WSW 17 20 9 11 1006.9 1000.7 0.0
 
Date/Time
WST
Temp
°C
App
Temp
°C
Dew
Point
°C
Rel
Hum
%
Delta-T
°C
Wind Press
QNH
hPa
Press
MSL
hPa
Rain since
9am
mm
Dir  Spd
km/h
Gust
km/h
Spd
kts
Gust
kts
15/11:30pm 27.5 24.3 6.8 27 11.3 SW 13 22 7 12 1007.0 1000.8 0.0
15/11:00pm 28.5 24.1 6.6 25 12.0 SW 19 26 10 14 1006.9 1000.7 0.0
15/10:30pm 29.1 24.1 6.5 24 12.4 SW 22 32 12 17 1006.9 1000.7 0.0
15/10:00pm 29.6 25.0 6.3 23 12.8 WSW 20 24 11 13 1007.0 1000.8 0.0
15/09:30pm 30.4 24.7 4.9 20 13.7 WSW 24 30 13 16 1006.9 1000.7 0.0
15/09:00pm 30.9 25.8 3.0 17 14.6 WSW 19 24 10 13 1006.7 1000.4 0.0
15/08:30pm 31.3 26.3 1.6 15 15.2 WSW 17 24 9 13 1006.4 1000.1 0.0
15/08:00pm 32.2 26.6 1.3 14 15.9 WSW 20 28 11 15 1006.0 999.7 0.0
15/07:30pm 32.9 26.9 0.9 13 16.3 WSW 22 26 12 14 1005.4 999.1 0.0
15/07:00pm 33.7 27.4 -0.8 11 17.3 WSW 22 28 12 15 1005.0 998.7 0.0
15/06:30pm 35.0 27.3 -2.6 9 18.4 WSW 28 39 15 21 1004.8 998.5 0.0
15/06:00pm 35.9 27.6 -1.9 9 18.9 WSW 32 41 17 22 1004.5 998.2 0.0
15/05:30pm 37.0 29.2 -1.1 9 19.3 WSW 30 41 16 22 1003.9 997.6 0.0
15/05:00pm 37.7 29.9 -0.6 9 19.7 W 30 46 16 25 1003.6 997.3 0.0
15/04:30pm 38.6 32.5 0.1 9 20.1 W 22 37 12 20 1003.3 997.0 0.0
15/04:00pm 39.8 34.7 1.0 9 20.7 WSW 17 30 9 16 1003.3 997.0 0.0
15/03:30pm 40.0 34.7 -0.5 8 21.1 WNW 17 26 9 14 1003.3 997.0 0.0
15/03:00pm 40.6 36.0 1.6 9 21.1 WNW 15 24 8 13 1003.6 997.3 0.0
15/02:30pm 38.9 33.6 1.8 10 19.9 SW 19 43 10 23 1003.8 997.5 0.0
15/02:00pm 39.2 34.1 0.6 9 20.4 N 17 30 9 16 1004.1 997.9 0.0
15/01:48pm 40.0 34.8 2.6 10 20.4 NW 19 54 10 29 1004.3 998.1 0.0
15/01:30pm 39.5 33.8 -0.8 8 20.8 NNW 19 35 10 19 1004.6 998.3 0.0
15/01:00pm 39.6 34.3 -0.8 8 21.0 NNW 17 26 9 14 1005.2 998.9 0.0
15/12:30pm 38.5 34.5 2.8 11 19.4 NW 13 28 7 15 1005.5 999.3 0.0
15/12:00pm 37.9 34.4 3.6 12 18.8 NNW 11 24 6 13 1006.1 999.8 0.0
15/11:30am 36.5 33.0 3.7 13 17.9 WSW 11 26 6 14 1006.6 1000.3 0.0
15/11:00am 36.9 33.1 4.0 13 18.1 N 13 24 7 13 1007.0 1000.8 0.0
15/10:30am 36.2 32.1 4.5 14 17.4 NNW 15 26 8 14 1007.6 1001.3 0.0
15/10:00am 34.4 31.9 6.7 18 15.7 S 9 13 5 7 1008.0 1001.7 0.0
15/09:30am 33.4 30.5 8.1 21 14.5 WSW 13 24 7 13 1008.4 1002.2 0.0
15/09:00am 32.3 29.5 8.5 23 13.7 SW 13 20 7 11 1008.7 1002.5 0.0
15/08:30am 30.9 28.1 8.6 25 12.8 WSW 13 30 7 16 1008.8 1002.6 0.0
15/08:00am 29.6 26.6 9.2 28 11.7 WSW 15 20 8 11 1009.1 1002.8 0.0
15/07:30am 28.7 25.0 9.4 30 11.1 WSW 19 22 10 12 1009.4 1003.1 0.0
15/07:00am 28.1 24.6 8.9 30 10.9 WSW 17 22 9 12 1009.1 1002.8 0.0
15/06:30am 26.6 24.0 7.6 30 10.5 WSW 11 17 6 9 1009.1 1002.8 0.0
15/06:00am 25.7 22.9 6.8 30 10.2 SW 11 15 6 8 1008.8 1002.6 0.0
15/05:30am 24.5 21.5 5.8 30 9.9 SW 11 15 6 8 1008.5 1002.3 0.0
15/05:00am 23.5 20.7 3.4 27 10.1 W 7 9 4 5 1008.2 1002.0 0.0
15/04:30am 24.4 21.3 3.7 26 10.5 W 9 13 5 7 1007.9 1001.6 0.0
15/04:00am 25.3 21.8 3.3 24 11.2 WSW 11 13 6 7 1007.8 1001.5 0.0
15/03:30am 25.7 22.8 2.4 22 11.7 SW 7 11 4 6 1007.7 1001.4 0.0
15/03:00am 26.6 22.9 2.5 21 12.2 SSW 11 15 6 8 1007.4 1001.2 0.0
15/02:30am 26.3 22.2 2.3 21 12.0 SW 13 17 7 9 1007.2 1001.0 0.0
15/02:00am 26.1 23.2 1.4 20 12.2 WNW 6 7 3 4 1007.3 1001.1 0.0
15/01:30am 26.6 24.0 1.1 19 12.5 WNW 4 6 2 3 1007.3 1001.1 0.0
15/01:00am 26.6 23.1 1.1 19 12.6 WNW 9 11 5 6 1007.4 1001.2 0.0
15/12:30am 27.3 23.6 0.1 17 13.2 SW 9 13 5 7 1007.8 1001.5 0.0
15/12:00am 27.7 24.8 -1.3 15 13.8 NW 4 11 2 6 1008.0 1001.7 0.0
 
Date/Time
WST
Temp
°C
App
Temp
°C
Dew
Point
°C
Rel
Hum
%
Delta-T
°C
Wind Press
QNH
hPa
Press
MSL
hPa
Rain since
9am
mm
Dir  Spd
km/h
Gust
km/h
Spd
kts
Gust
kts
14/11:30pm 28.0 24.0 -2.0 14 14.1 WSW 9 11 5 6 1008.2 1002.0 0.0
14/11:00pm 30.1 25.7 -2.4 12 15.4 SW 11 13 6 7 1008.5 1002.3 0.0
14/10:30pm 30.7 26.4 -1.9 12 15.7 W 11 13 6 7 1008.8 1002.6 0.0
14/10:00pm 31.2 26.9 -1.5 12 15.9 W 11 13 6 7 1008.8 1002.6 0.0
14/09:30pm 32.9 29.4 -1.4 11 16.9 W 7 9 4 5 1008.7 1002.5 0.0
14/09:00pm 34.1 29.9 1.8 13 16.9 WNW 13 20 7 11 1008.3 1002.1 0.0
14/08:30pm 34.2 31.0 2.9 14 16.6 N 9 13 5 7 1007.8 1001.5 0.0
14/08:00pm 35.2 31.5 2.6 13 17.4 N 11 13 6 7 1007.7 1001.4 0.0
14/07:30pm 35.9 32.2 2.1 12 17.9 NNW 11 17 6 9 1007.6 1001.3 0.0
14/07:00pm 36.8 32.6 1.5 11 18.7 N 13 20 7 11 1007.4 1001.2 0.0

Other Formats:

Comma delimited format used in spreadsheet applications
http://www.bom.gov.au/fwo/IDW60801/IDW60801.99312.axf

JavaScript Object Notation format (JSON) in row-major order
http://www.bom.gov.au/fwo/IDW60801/IDW60801.99312.json